createdAt,value
2022-11-15T00:00:47.302Z,13.77
2022-11-15T00:03:15.856Z,13.90
2022-11-15T00:05:43.686Z,13.75
2022-11-15T00:08:12.753Z,12.77
2022-11-15T00:10:40.477Z,13.60
2022-11-15T00:13:08.206Z,12.52
2022-11-15T00:15:36.843Z,11.90
2022-11-15T00:18:04.613Z,13.55
2022-11-15T00:20:32.268Z,12.95
2022-11-15T00:23:00.317Z,13.27
2022-11-15T00:25:29.484Z,12.77
2022-11-15T00:27:57.608Z,13.65
2022-11-15T00:30:25.618Z,13.60
2022-11-15T00:32:53.380Z,14.25
2022-11-15T00:35:21.295Z,12.48
2022-11-15T00:37:51.946Z,12.18
2022-11-15T00:40:19.599Z,12.85
2022-11-15T00:42:48.603Z,13.38
2022-11-15T00:45:16.445Z,11.48
2022-11-15T00:47:46.083Z,12.32
2022-11-15T00:50:15.352Z,13.07
2022-11-15T00:52:43.287Z,10.65
2022-11-15T00:55:12.198Z,11.85
2022-11-15T00:57:39.802Z,11.38
2022-11-15T01:00:09.951Z,12.45
2022-11-15T01:02:37.714Z,11.63
2022-11-15T01:05:05.718Z,10.43
2022-11-15T01:07:33.394Z,10.52
2022-11-15T01:10:01.106Z,11.45
2022-11-15T01:12:28.746Z,11.35
2022-11-15T01:14:56.378Z,11.38
2022-11-15T01:17:25.394Z,10.77
2022-11-15T01:19:53.101Z,12.75
2022-11-15T01:22:20.988Z,11.77
2022-11-15T01:24:48.643Z,12.52
2022-11-15T01:27:16.288Z,11.10
2022-11-15T01:29:43.919Z,12.27
2022-11-15T01:32:11.559Z,11.15
2022-11-15T01:34:40.547Z,12.25
2022-11-15T01:37:08.150Z,10.60
2022-11-15T01:39:35.758Z,11.43
2022-11-15T01:42:03.496Z,11.48
2022-11-15T01:44:40.962Z,10.90
2022-11-15T01:47:11.178Z,10.82
2022-11-15T01:49:41.256Z,10.18
2022-11-15T01:52:11.077Z,10.98
2022-11-15T01:54:38.862Z,11.80
2022-11-15T01:57:08.577Z,9.57
2022-11-15T01:59:36.359Z,10.07
2022-11-15T02:02:03.998Z,10.18
2022-11-15T02:04:33.523Z,9.15
2022-11-15T02:07:04.257Z,8.18
2022-11-15T02:09:32.222Z,9.52
2022-11-15T02:12:01.334Z,8.38
2022-11-15T02:14:29.822Z,8.43
2022-11-15T02:17:01.462Z,7.35
2022-11-15T02:19:39.304Z,8.43
2022-11-15T02:22:13.785Z,7.15
2022-11-15T02:24:59.347Z,7.50
2022-11-15T02:27:37.190Z,7.10
2022-11-15T02:30:21.320Z,7.25
2022-11-15T02:32:52.209Z,7.18
2022-11-15T02:35:25.658Z,7.18
2022-11-15T02:37:57.564Z,7.05
2022-11-15T02:40:28.857Z,6.10
2022-11-15T02:43:15.633Z,7.75
2022-11-15T02:45:47.100Z,5.90
2022-11-15T02:48:15.589Z,6.10
2022-11-15T02:50:43.262Z,7.13
2022-11-15T02:53:11.321Z,7.03
2022-11-15T02:55:40.335Z,6.60
2022-11-15T02:58:18.768Z,5.55
2022-11-15T03:00:50.146Z,5.72
2022-11-15T03:03:26.825Z,5.72
2022-11-15T03:05:56.439Z,5.80
2022-11-15T03:08:28.542Z,4.93
2022-11-15T03:10:59.977Z,5.60
2022-11-15T03:13:29.481Z,5.63
2022-11-15T03:16:03.926Z,5.13
2022-11-15T03:18:34.659Z,5.32
2022-11-15T03:21:03.298Z,5.32
2022-11-15T03:23:32.762Z,5.18
2022-11-15T03:26:01.591Z,5.30
2022-11-15T03:28:34.535Z,5.47
2022-11-15T03:31:24.559Z,4.70
2022-11-15T03:33:53.524Z,4.47
2022-11-15T03:36:21.668Z,4.20
2022-11-15T03:38:50.153Z,4.88
2022-11-15T03:41:20.150Z,4.30
2022-11-15T03:43:50.180Z,4.32
2022-11-15T03:46:21.998Z,4.50
2022-11-15T03:48:52.346Z,4.45
2022-11-15T03:51:20.355Z,3.55
2022-11-15T03:53:50.429Z,3.90
2022-11-15T03:56:18.034Z,3.70
2022-11-15T03:58:45.763Z,4.85
2022-11-15T04:01:13.441Z,3.83
2022-11-15T04:03:42.506Z,3.88
2022-11-15T04:06:10.280Z,3.78
2022-11-15T04:08:37.880Z,3.90
2022-11-15T04:11:05.659Z,4.18
2022-11-15T04:13:33.621Z,3.90
2022-11-15T04:16:01.536Z,3.92
2022-11-15T04:18:29.156Z,3.70
2022-11-15T04:21:15.912Z,4.22
2022-11-15T04:24:01.081Z,4.20
2022-11-15T04:26:29.021Z,2.95
2022-11-15T04:29:14.307Z,3.60
2022-11-15T04:31:41.912Z,3.08
2022-11-15T04:34:10.713Z,2.97
2022-11-15T04:36:57.451Z,3.20
2022-11-15T04:39:25.108Z,4.38
2022-11-15T04:41:52.712Z,3.85
2022-11-15T04:44:20.371Z,4.00
2022-11-15T04:46:48.102Z,3.25
2022-11-15T04:49:15.690Z,3.72
2022-11-15T04:51:44.682Z,3.33
2022-11-15T04:54:12.322Z,2.47
2022-11-15T04:56:39.991Z,2.85
2022-11-15T04:59:07.803Z,2.88
2022-11-15T05:01:38.454Z,3.10
2022-11-15T05:04:20.068Z,3.75
2022-11-15T05:06:49.829Z,3.35
2022-11-15T05:09:17.597Z,3.63
2022-11-15T05:11:45.200Z,3.95
2022-11-15T05:14:12.836Z,4.40
2022-11-15T05:16:40.632Z,4.35
2022-11-15T05:19:08.727Z,3.80
2022-11-15T05:21:36.339Z,4.10
2022-11-15T05:24:05.613Z,3.55
2022-11-15T05:26:33.316Z,3.60
2022-11-15T05:29:01.150Z,3.88
2022-11-15T05:31:29.069Z,3.70
2022-11-15T05:33:57.577Z,4.30
2022-11-15T05:36:29.542Z,3.40
2022-11-15T05:38:57.163Z,3.88
2022-11-15T05:41:27.170Z,3.75
2022-11-15T05:43:55.371Z,3.83
2022-11-15T05:46:23.137Z,4.40
2022-11-15T05:48:51.641Z,4.03
2022-11-15T05:51:20.404Z,4.53
2022-11-15T05:53:48.617Z,4.32
2022-11-15T05:56:16.818Z,4.38
2022-11-15T05:58:45.911Z,5.00
2022-11-15T06:01:13.664Z,4.53
2022-11-15T06:03:41.290Z,3.75
2022-11-15T06:06:12.330Z,3.65
2022-11-15T06:08:43.753Z,4.57
2022-11-15T06:11:11.611Z,4.45
2022-11-15T06:13:39.235Z,4.03
2022-11-15T06:16:08.712Z,4.82
2022-11-15T06:18:36.844Z,3.70
2022-11-15T06:21:05.053Z,4.05
2022-11-15T06:23:34.451Z,4.03
2022-11-15T06:26:02.758Z,4.55
2022-11-15T06:28:30.761Z,3.97
2022-11-15T06:31:00.866Z,3.72
2022-11-15T06:33:30.594Z,5.03
2022-11-15T06:36:01.823Z,5.28
2022-11-15T06:38:29.457Z,5.22
2022-11-15T06:40:57.118Z,5.03
2022-11-15T06:43:24.786Z,4.97
2022-11-15T06:45:52.451Z,4.40
2022-11-15T06:48:20.166Z,4.70
2022-11-15T06:50:53.880Z,4.10
2022-11-15T06:53:21.930Z,4.80
2022-11-15T06:55:54.928Z,6.13
2022-11-15T06:58:23.389Z,4.85
2022-11-15T07:00:51.248Z,5.00
2022-11-15T07:03:19.482Z,5.03
2022-11-15T07:05:54.425Z,5.30
2022-11-15T07:08:22.091Z,5.13
2022-11-15T07:10:49.753Z,4.53
2022-11-15T07:13:17.634Z,4.78
2022-11-15T07:15:45.363Z,4.95
2022-11-15T07:18:13.008Z,4.68
2022-11-15T07:20:40.789Z,4.97
2022-11-15T07:23:09.802Z,4.40
2022-11-15T07:25:37.461Z,5.28
2022-11-15T07:28:05.729Z,5.03
2022-11-15T07:30:33.357Z,5.57
2022-11-15T07:33:01.634Z,5.55
2022-11-15T07:35:29.721Z,5.07
2022-11-15T07:37:58.043Z,5.35
2022-11-15T07:40:27.613Z,4.00
2022-11-15T07:43:00.541Z,5.10
2022-11-15T07:45:28.405Z,5.20
2022-11-15T07:47:57.098Z,4.82
2022-11-15T07:50:25.102Z,4.90
2022-11-15T07:52:55.883Z,4.85
2022-11-15T07:55:23.803Z,4.82
2022-11-15T07:57:52.804Z,4.50
2022-11-15T08:00:21.131Z,5.35
2022-11-15T08:02:48.917Z,5.25
2022-11-15T08:05:16.825Z,5.47
2022-11-15T08:07:44.637Z,4.32
2022-11-15T08:10:12.928Z,5.65
2022-11-15T08:12:40.548Z,5.07
2022-11-15T08:15:10.150Z,4.75
2022-11-15T08:17:37.747Z,4.55
2022-11-15T08:20:05.794Z,5.40
2022-11-15T08:22:33.683Z,3.65
2022-11-15T08:25:01.360Z,3.70
2022-11-15T08:27:29.118Z,4.38
2022-11-15T08:29:59.607Z,4.07
2022-11-15T08:32:28.777Z,3.97
2022-11-15T08:34:56.390Z,3.50
2022-11-15T08:37:24.012Z,3.22
2022-11-15T08:39:51.609Z,3.53
2022-11-15T08:42:20.237Z,3.22
2022-11-15T08:44:47.979Z,2.97
2022-11-15T08:47:15.843Z,3.45
2022-11-15T08:49:44.875Z,2.75
2022-11-15T08:52:12.505Z,2.95
2022-11-15T08:54:40.267Z,2.50
2022-11-15T08:57:08.145Z,3.05
2022-11-15T08:59:35.801Z,2.72
2022-11-15T09:02:03.701Z,1.98
2022-11-15T09:04:31.390Z,2.20
2022-11-15T09:07:00.399Z,2.20
2022-11-15T09:09:28.063Z,2.83
2022-11-15T09:12:01.026Z,2.53
2022-11-15T09:14:30.228Z,1.90
2022-11-15T09:16:57.844Z,1.95
2022-11-15T09:19:25.567Z,2.50
2022-11-15T09:21:53.932Z,2.38
2022-11-15T09:24:23.521Z,2.20
2022-11-15T09:26:51.957Z,2.10
2022-11-15T09:29:19.702Z,2.03
2022-11-15T09:31:47.388Z,2.95
2022-11-15T09:34:15.191Z,2.03
2022-11-15T09:36:42.872Z,1.60
2022-11-15T09:39:10.562Z,2.00
2022-11-15T09:41:59.323Z,1.88
2022-11-15T09:44:43.078Z,2.97
2022-11-15T09:47:17.604Z,1.58
2022-11-15T09:49:45.239Z,1.73
2022-11-15T09:52:13.181Z,2.10
2022-11-15T09:54:56.800Z,1.50
2022-11-15T09:57:32.069Z,2.58
2022-11-15T10:00:44.000Z,1.67
2022-11-15T10:03:10.007Z,2.40
2022-11-15T10:05:40.164Z,1.92
2022-11-15T10:08:15.412Z,1.15
2022-11-15T10:13:15.036Z,1.45
2022-11-15T10:15:46.508Z,1.60
2022-11-15T10:18:19.188Z,1.60
2022-11-15T10:20:49.425Z,1.30
2022-11-15T10:23:19.058Z,1.38
2022-11-15T10:25:46.776Z,2.30
2022-11-15T10:28:16.797Z,1.45
2022-11-15T10:30:47.320Z,1.35
2022-11-15T10:33:27.686Z,1.73
2022-11-15T10:36:13.709Z,1.67
2022-11-15T10:38:53.802Z,1.67
2022-11-15T10:41:22.747Z,1.55
2022-11-15T10:44:05.105Z,1.67
2022-11-15T10:46:49.609Z,1.38
2022-11-15T10:49:18.163Z,2.33
2022-11-15T10:51:47.604Z,1.27
2022-11-15T10:54:21.000Z,1.35
2022-11-15T10:56:51.858Z,1.50
2022-11-15T10:59:25.365Z,1.63
2022-11-15T11:01:54.460Z,0.90
2022-11-15T11:04:22.477Z,1.80
2022-11-15T11:06:50.715Z,1.60
2022-11-15T11:09:24.670Z,1.02
2022-11-15T11:11:53.298Z,1.45
2022-11-15T11:14:23.364Z,1.20
2022-11-15T11:16:53.210Z,1.02
2022-11-15T11:19:29.533Z,1.00
2022-11-15T11:21:59.815Z,1.63
2022-11-15T11:24:32.308Z,0.98
2022-11-15T11:27:05.964Z,1.40
2022-11-15T11:29:39.245Z,2.15
2022-11-15T11:32:15.121Z,1.40
2022-11-15T11:34:50.667Z,1.13
2022-11-15T11:37:21.534Z,1.40
2022-11-15T11:39:55.082Z,1.88
2022-11-15T11:42:28.605Z,1.35
2022-11-15T11:45:01.354Z,1.10
2022-11-15T11:47:34.249Z,1.10
2022-11-15T11:50:12.235Z,1.10
2022-11-15T11:52:41.315Z,1.38
2022-11-15T11:55:16.068Z,1.77
2022-11-15T11:57:46.049Z,1.23
2022-11-15T12:00:19.773Z,1.40
2022-11-15T12:02:49.873Z,1.30
2022-11-15T12:05:22.377Z,2.00
2022-11-15T12:07:51.576Z,1.20
2022-11-15T12:10:22.924Z,1.50
2022-11-15T12:12:53.798Z,1.15
2022-11-15T12:15:23.171Z,1.00
2022-11-15T12:17:51.037Z,1.27
2022-11-15T12:20:21.466Z,1.40
2022-11-15T12:22:51.801Z,1.42
2022-11-15T12:25:20.781Z,2.20
2022-11-15T12:27:51.232Z,1.10
2022-11-15T12:30:20.437Z,1.15
2022-11-15T12:32:53.786Z,1.60
2022-11-15T12:35:35.227Z,1.30
2022-11-15T12:38:02.896Z,1.20
2022-11-15T12:40:35.063Z,1.38
2022-11-15T12:43:04.151Z,1.80
2022-11-15T12:45:32.800Z,1.25
2022-11-15T12:48:34.346Z,1.40
2022-11-15T12:51:03.633Z,1.33
2022-11-15T12:53:32.541Z,1.30
2022-11-15T12:56:24.271Z,1.13
2022-11-15T12:58:56.026Z,1.23
2022-11-15T13:01:42.638Z,1.15
2022-11-15T13:04:11.112Z,1.15
2022-11-15T13:06:44.216Z,1.38
2022-11-15T13:09:31.795Z,1.40
2022-11-15T13:11:59.816Z,1.20
2022-11-15T13:14:47.552Z,1.10
2022-11-15T13:17:24.295Z,1.15
2022-11-15T13:19:57.312Z,1.30
2022-11-15T13:22:43.782Z,1.38
2022-11-15T13:25:20.160Z,1.73
2022-11-15T13:27:48.587Z,1.40
2022-11-15T13:30:18.092Z,1.02
2022-11-15T13:32:45.726Z,1.35
2022-11-15T13:35:20.433Z,1.30
2022-11-15T13:37:49.812Z,1.00
2022-11-15T13:40:21.908Z,0.93
2022-11-15T13:42:49.685Z,1.20
2022-11-15T13:45:18.647Z,1.02
2022-11-15T13:47:46.229Z,0.98
2022-11-15T13:50:14.598Z,1.20
2022-11-15T13:52:44.752Z,1.50
2022-11-15T13:55:15.357Z,1.23
2022-11-15T13:57:44.657Z,1.60
2022-11-15T14:00:27.136Z,1.95
2022-11-15T14:02:55.528Z,1.83
2022-11-15T14:05:24.640Z,1.52
2022-11-15T14:07:55.465Z,1.73
2022-11-15T14:10:32.096Z,1.42
2022-11-15T14:13:00.026Z,1.40
2022-11-15T14:15:30.465Z,1.67
2022-11-15T14:17:58.264Z,1.90
2022-11-15T14:20:31.684Z,2.00
2022-11-15T14:23:00.737Z,2.05
2022-11-15T14:25:29.191Z,2.00
2022-11-15T14:28:15.733Z,1.65
2022-11-15T14:30:44.103Z,1.90
2022-11-15T14:33:25.259Z,2.38
2022-11-15T14:35:53.278Z,1.95
2022-11-15T14:38:21.160Z,2.20
2022-11-15T14:40:48.759Z,2.17
2022-11-15T14:43:17.884Z,2.00
2022-11-15T14:45:45.625Z,2.13
2022-11-15T14:48:13.339Z,1.90
2022-11-15T14:50:41.003Z,2.58
2022-11-15T14:53:08.619Z,2.50
2022-11-15T14:55:37.345Z,2.30
2022-11-15T14:58:05.384Z,2.75
2022-11-15T15:00:35.584Z,2.22
2022-11-15T15:03:03.646Z,2.55
2022-11-15T15:05:33.442Z,3.25
2022-11-15T15:08:01.652Z,2.83
2022-11-15T15:10:41.149Z,2.65
2022-11-15T15:13:14.872Z,2.83
2022-11-15T15:15:43.839Z,2.58
2022-11-15T15:18:12.385Z,3.20
2022-11-15T15:20:41.133Z,3.22
2022-11-15T15:23:13.219Z,2.80
2022-11-15T15:25:41.328Z,2.97
2022-11-15T15:28:08.970Z,2.65
2022-11-15T15:30:36.600Z,2.72
2022-11-15T15:33:05.565Z,2.70
2022-11-15T15:35:34.485Z,3.33
2022-11-15T15:38:02.130Z,2.50
2022-11-15T15:40:30.973Z,3.85
2022-11-15T15:42:58.865Z,3.60
2022-11-15T15:45:27.223Z,2.97
2022-11-15T15:47:55.209Z,3.58
2022-11-15T15:50:25.414Z,3.10
2022-11-15T15:52:53.873Z,3.83
2022-11-15T15:55:21.860Z,3.50
2022-11-15T15:57:49.848Z,2.92
2022-11-15T16:00:18.669Z,3.03
2022-11-15T16:02:46.373Z,3.20
2022-11-15T16:05:14.446Z,3.05
2022-11-15T16:07:44.467Z,3.10
2022-11-15T16:10:18.533Z,3.30
2022-11-15T16:12:46.982Z,3.90
2022-11-15T16:15:14.856Z,3.63
2022-11-15T16:17:44.291Z,3.75
2022-11-15T16:20:17.563Z,3.85
2022-11-15T16:22:46.865Z,5.72
2022-11-15T16:25:14.466Z,4.35
2022-11-15T16:27:45.853Z,3.40
2022-11-15T16:30:14.635Z,3.83
2022-11-15T16:32:42.395Z,3.58
2022-11-15T16:35:12.573Z,3.38
2022-11-15T16:37:40.872Z,3.45
2022-11-15T16:40:18.786Z,2.95
2022-11-15T16:42:47.077Z,3.92
2022-11-15T16:45:14.906Z,3.75
2022-11-15T16:47:42.504Z,3.08
2022-11-15T16:50:15.436Z,3.80
2022-11-15T16:52:43.017Z,4.13
2022-11-15T16:55:10.850Z,3.08
2022-11-15T16:57:40.155Z,4.05
2022-11-15T17:00:08.507Z,4.10
2022-11-15T17:02:36.263Z,4.93
2022-11-15T17:05:09.813Z,4.20
2022-11-15T17:07:38.717Z,5.00
2022-11-15T17:10:07.446Z,5.20
2022-11-15T17:12:35.242Z,4.65
2022-11-15T17:15:05.635Z,4.65
2022-11-15T17:17:33.663Z,5.18
2022-11-15T17:20:01.356Z,3.95
2022-11-15T17:22:28.932Z,4.53
2022-11-15T17:24:56.576Z,4.90
2022-11-15T17:27:24.206Z,4.65
2022-11-15T17:29:51.837Z,4.43
2022-11-15T17:32:20.863Z,5.05
2022-11-15T17:34:48.460Z,4.45
2022-11-15T17:37:16.213Z,4.47
2022-11-15T17:39:43.883Z,5.18
2022-11-15T17:42:13.199Z,5.10
2022-11-15T17:44:40.820Z,4.85
2022-11-15T17:47:08.582Z,9.63
2022-11-15T17:49:40.760Z,5.28
2022-11-15T17:52:08.765Z,4.75
2022-11-15T17:54:36.405Z,5.45
2022-11-15T17:57:04.075Z,4.13
2022-11-15T17:59:31.928Z,4.97
2022-11-15T18:01:59.572Z,4.50
2022-11-15T18:04:28.778Z,5.07
2022-11-15T18:06:57.827Z,4.63
2022-11-15T18:09:26.423Z,5.13
2022-11-15T18:11:55.045Z,4.55
2022-11-15T18:14:23.379Z,4.72
2022-11-15T18:16:51.024Z,4.82
2022-11-15T18:19:18.853Z,4.88
2022-11-15T18:21:59.205Z,4.57
2022-11-15T18:24:29.272Z,5.53
2022-11-15T18:26:57.163Z,4.68
2022-11-15T18:29:25.667Z,4.90
2022-11-15T18:31:55.731Z,5.70
2022-11-15T18:34:24.668Z,6.38
2022-11-15T18:36:52.862Z,5.85
2022-11-15T18:39:20.811Z,4.93
2022-11-15T18:41:50.354Z,4.70
2022-11-15T18:44:18.149Z,5.10
2022-11-15T18:46:46.108Z,5.00
2022-11-15T18:49:14.761Z,4.80
2022-11-15T18:51:43.097Z,4.82
2022-11-15T18:54:11.705Z,4.85
2022-11-15T18:56:39.971Z,5.47
2022-11-15T18:59:09.367Z,4.63
2022-11-15T19:01:38.465Z,4.20
2022-11-15T19:04:07.354Z,3.83
2022-11-15T19:06:37.827Z,4.55
2022-11-15T19:09:05.569Z,4.20
2022-11-15T19:11:35.707Z,4.43
2022-11-15T19:14:04.212Z,4.43
2022-11-15T19:16:34.346Z,6.55
2022-11-15T19:19:02.776Z,5.63
2022-11-15T19:21:31.406Z,5.32
2022-11-15T19:23:59.670Z,4.90
2022-11-15T19:26:27.886Z,6.65
2022-11-15T19:28:56.593Z,6.32
2022-11-15T19:31:24.761Z,4.63
2022-11-15T19:33:53.981Z,5.38
2022-11-15T19:36:22.079Z,5.68
2022-11-15T19:38:49.929Z,5.25
2022-11-15T19:41:18.546Z,5.43
2022-11-15T19:43:47.961Z,6.63
2022-11-15T19:46:16.053Z,5.30
2022-11-15T19:48:44.092Z,4.70
2022-11-15T19:51:13.794Z,5.85
2022-11-15T19:53:42.320Z,5.55
2022-11-15T19:56:12.279Z,7.25
2022-11-15T19:58:40.210Z,4.82
2022-11-15T20:01:09.607Z,4.72
2022-11-15T20:03:37.383Z,7.05
2022-11-15T20:06:06.377Z,5.68
2022-11-15T20:08:36.078Z,5.53
2022-11-15T20:11:04.515Z,10.57
2022-11-15T20:13:32.758Z,5.65
2022-11-15T20:16:00.713Z,7.60
2022-11-15T20:18:28.896Z,7.40
2022-11-15T20:20:58.519Z,5.85
2022-11-15T20:23:26.555Z,5.25
2022-11-15T20:25:55.926Z,5.88
2022-11-15T20:28:24.234Z,5.88
2022-11-15T20:30:52.842Z,4.95
2022-11-15T20:33:20.914Z,5.15
2022-11-15T20:35:48.527Z,5.47
2022-11-15T20:38:16.503Z,6.72
2022-11-15T20:40:45.881Z,5.78
2022-11-15T20:43:15.442Z,5.95
2022-11-15T20:45:44.442Z,6.47
2022-11-15T20:48:13.841Z,5.03
2022-11-15T20:50:43.455Z,5.53
2022-11-15T20:53:11.882Z,5.82
2022-11-15T20:55:43.206Z,6.18
2022-11-15T20:58:11.699Z,5.53
2022-11-15T21:00:42.032Z,5.50
2022-11-15T21:03:09.971Z,4.60
2022-11-15T21:05:39.285Z,6.18
2022-11-15T21:08:07.264Z,5.38
2022-11-15T21:10:52.422Z,5.10
2022-11-15T21:13:20.032Z,5.32
2022-11-15T21:15:49.208Z,5.25
2022-11-15T21:18:16.809Z,5.85
2022-11-15T21:20:44.495Z,5.65
2022-11-15T21:23:12.729Z,4.93
2022-11-15T21:25:40.337Z,5.70
2022-11-15T21:28:08.024Z,5.35
2022-11-15T21:30:35.639Z,5.18
2022-11-15T21:33:04.666Z,5.93
2022-11-15T21:35:33.010Z,5.00
2022-11-15T21:38:00.628Z,4.82
2022-11-15T21:40:28.254Z,5.28
2022-11-15T21:42:56.023Z,5.65
2022-11-15T21:45:23.702Z,5.75
2022-11-15T21:47:51.302Z,5.18
2022-11-15T21:50:20.386Z,5.10
2022-11-15T21:52:48.026Z,4.97
2022-11-15T21:55:15.717Z,5.53
2022-11-15T21:57:43.387Z,5.03
2022-11-15T22:00:29.219Z,5.10
2022-11-15T22:02:56.911Z,5.38
2022-11-15T22:05:25.911Z,5.43
2022-11-15T22:07:53.624Z,5.07
2022-11-15T22:10:21.181Z,4.70
2022-11-15T22:12:49.132Z,4.90
2022-11-15T22:15:16.845Z,4.90
2022-11-15T22:17:59.641Z,4.88
2022-11-15T22:20:43.975Z,5.18
2022-11-15T22:23:12.852Z,5.80
2022-11-15T22:25:42.882Z,4.95
2022-11-15T22:28:10.463Z,4.50
2022-11-15T22:30:38.152Z,4.90
2022-11-15T22:33:05.842Z,5.07
2022-11-15T22:35:36.619Z,4.53
2022-11-15T22:38:04.484Z,4.70
2022-11-15T22:40:32.263Z,4.80
2022-11-15T22:42:59.955Z,5.05
2022-11-15T22:45:27.592Z,4.53
2022-11-15T22:47:55.177Z,3.92
2022-11-15T22:50:23.138Z,3.63
2022-11-15T22:52:52.210Z,4.55
2022-11-15T22:55:19.949Z,4.00
2022-11-15T22:57:47.612Z,4.72
2022-11-15T23:00:16.369Z,4.80
2022-11-15T23:02:44.265Z,4.40
2022-11-15T23:05:12.630Z,3.75
2022-11-15T23:07:40.264Z,3.20
2022-11-15T23:10:27.057Z,3.13
2022-11-15T23:13:12.464Z,3.22
2022-11-15T23:15:57.416Z,3.90
2022-11-15T23:18:25.236Z,3.03
2022-11-15T23:20:52.919Z,4.18
2022-11-15T23:23:19.513Z,2.97
2022-11-15T23:25:48.662Z,3.10
2022-11-15T23:28:16.317Z,3.65
2022-11-15T23:31:00.345Z,3.38
2022-11-15T23:33:45.268Z,3.33
2022-11-15T23:36:12.881Z,3.07
2022-11-15T23:38:40.797Z,2.95
2022-11-15T23:41:09.878Z,2.70
2022-11-15T23:43:37.615Z,2.50
2022-11-15T23:46:05.245Z,3.30
2022-11-15T23:48:33.100Z,2.50
2022-11-15T23:51:00.834Z,3.15
2022-11-15T23:53:28.464Z,2.50
2022-11-15T23:55:56.930Z,3.38
2022-11-15T23:58:26.039Z,3.05
